Time;durP1;ratioP1;P1;durP2;ratioP2;P2;SDS_P1;SDS_P2;PMS_P1;PMS_P2;Temp;Humidity;BMP_temperature;BMP_pressure;BME280_temperature;BME280_humidity;BME280_pressure;Samples;Min_cycle;Max_cycle;Signal;HPM_P1;HPM_P2
2022/09/01 00:01:51;;;;;;;3.33;2.20;;;;;;;18.58;47.39;101944.03;5098955;28;20024;-84
2022/09/01 00:04:25;;;;;;;3.45;2.00;;;;;;;18.63;47.32;101950.25;5099497;28;20070;-85
2022/09/01 00:06:53;;;;;;;8.45;2.22;;;;;;;18.61;47.13;101950.28;5099488;28;20028;-86
2022/09/01 00:09:21;;;;;;;4.70;2.13;;;;;;;18.54;47.78;101951.19;5099462;28;20462;-83
2022/09/01 00:11:51;;;;;;;5.82;2.10;;;;;;;18.44;48.49;101934.28;5098851;28;20086;-86
2022/09/01 00:14:23;;;;;;;2.67;1.90;;;;;;;18.45;48.94;101946.78;5098781;28;20058;-83
2022/09/01 00:16:48;;;;;;;8.77;2.40;;;;;;;18.50;48.49;101941.44;5099141;28;20473;-83
2022/09/01 00:19:14;;;;;;;5.70;2.15;;;;;;;18.48;50.20;101944.09;5100770;28;20112;-82
2022/09/01 00:21:42;;;;;;;6.63;2.30;;;;;;;18.44;49.18;101945.00;5078810;28;20040;-85
2022/09/01 00:24:10;;;;;;;5.10;2.28;;;;;;;18.45;48.99;101945.88;5095309;28;20104;-82
2022/09/01 00:26:36;;;;;;;7.85;2.30;;;;;;;18.39;49.61;101945.91;5095339;28;20036;-84
2022/09/01 00:29:02;;;;;;;4.50;2.08;;;;;;;18.37;49.72;101945.94;5095726;28;20035;-84
2022/09/01 00:31:27;;;;;;;5.80;2.25;;;;;;;18.32;49.65;101945.03;5095353;28;20082;-84
2022/09/01 00:33:54;;;;;;;4.95;2.10;;;;;;;18.34;50.64;101948.63;5077202;28;20044;-85
2022/09/01 00:36:20;;;;;;;4.13;2.17;;;;;;;18.27;50.66;101949.53;5095329;28;20390;-85
2022/09/01 00:38:46;;;;;;;5.03;2.05;;;;;;;18.29;51.05;101949.53;5094913;28;20028;-84
2022/09/01 00:41:12;;;;;;;4.68;2.17;;;;;;;18.22;50.51;101949.53;5094745;28;20097;-84
2022/09/01 00:43:50;;;;;;;2.67;1.92;;;;;;;18.15;51.14;101947.78;5076113;28;20059;-85
2022/09/01 00:46:36;;;;;;;6.28;2.08;;;;;;;18.21;50.63;101944.22;5076485;28;20119;-86
2022/09/01 00:49:16;;;;;;;4.22;2.15;;;;;;;18.17;51.38;101945.13;5094671;28;20058;-85
2022/09/01 00:51:47;;;;;;;4.10;2.05;;;;;;;18.10;51.73;101946.91;5094190;28;20063;-85
2022/09/01 00:54:17;;;;;;;7.80;2.30;;;;;;;18.04;52.62;101946.03;5094522;28;20075;-85
2022/09/01 00:56:45;;;;;;;7.18;2.20;;;;;;;17.97;52.26;101942.47;5094489;28;20084;-85
2022/09/01 00:59:11;;;;;;;4.32;2.22;;;;;;;17.92;52.52;101942.50;5094324;28;20065;-84
2022/09/01 01:01:38;;;;;;;4.72;2.40;;;;;;;17.92;52.44;101936.25;5094487;28;20032;-85
2022/09/01 01:04:13;;;;;;;6.20;2.20;;;;;;;17.89;52.83;101933.56;5094631;28;20480;-85
2022/09/01 01:07:02;;;;;;;5.68;2.17;;;;;;;17.88;52.61;101938.03;5095738;28;20035;-85
2022/09/01 01:09:34;;;;;;;5.32;2.30;;;;;;;17.82;53.06;101939.84;5076052;28;20031;-84
2022/09/01 01:12:02;;;;;;;4.70;2.20;;;;;;;17.72;53.27;101937.13;5095277;28;20032;-85
2022/09/01 01:14:31;;;;;;;6.63;2.30;;;;;;;17.72;54.00;101945.16;5095251;28;20055;-85
2022/09/01 01:16:58;;;;;;;4.93;2.08;;;;;;;17.68;54.28;101930.00;5095390;28;20032;-84
2022/09/01 01:26:04;;;;;;;4.97;2.40;;;;;;;17.65;53.88;101943.41;5095244;28;20547;-85
2022/09/01 01:28:33;;;;;;;6.03;2.30;;;;;;;17.72;53.62;101941.59;5077135;28;20040;-85
2022/09/01 01:31:13;;;;;;;3.38;2.20;;;;;;;17.68;53.94;101923.78;5094501;28;20454;-84
2022/09/01 01:33:46;;;;;;;3.90;2.33;;;;;;;17.61;54.00;101933.59;5094663;28;20077;-85
2022/09/01 01:36:31;;;;;;;7.35;2.28;;;;;;;17.60;54.76;101938.91;5094709;28;20040;-85
2022/09/01 01:39:03;;;;;;;4.15;2.30;;;;;;;17.44;54.63;101932.72;5094944;28;20031;-84
2022/09/01 01:41:32;;;;;;;2.30;1.90;;;;;;;17.46;54.87;101937.16;5076764;28;20031;-84
2022/09/01 01:44:03;;;;;;;3.85;2.20;;;;;;;17.28;54.96;101916.69;5094511;28;20390;-85
2022/09/01 01:46:29;;;;;;;4.30;2.40;;;;;;;17.31;55.16;101934.50;5094741;28;20039;-84
2022/09/01 01:48:55;;;;;;;4.13;2.38;;;;;;;17.33;55.10;101938.03;5094890;28;20055;-84
2022/09/01 01:51:27;;;;;;;9.00;2.30;;;;;;;17.31;55.05;101936.28;5077091;28;20028;-84
2022/09/01 01:53:54;;;;;;;5.15;2.25;;;;;;;17.31;55.50;101944.28;5094690;28;20452;-83
2022/09/01 01:56:25;;;;;;;4.85;2.40;;;;;;;17.34;55.62;101947.84;5094430;28;20107;-84
2022/09/01 01:58:56;;;;;;;4.57;2.28;;;;;;;17.32;55.71;101949.63;5095693;28;20032;-84
2022/09/01 02:01:24;;;;;;;4.60;2.40;;;;;;;17.27;55.31;101948.75;5094987;28;20047;-84
2022/09/01 02:03:51;;;;;;;4.53;2.50;;;;;;;17.18;55.67;101944.28;5093995;28;20047;-84
2022/09/01 02:06:18;;;;;;;7.10;2.40;;;;;;;17.27;55.50;101943.41;5094765;28;20115;-85
2022/09/01 02:08:44;;;;;;;4.18;2.38;;;;;;;17.21;55.61;101948.72;5094448;28;20110;-84
2022/09/01 02:11:12;;;;;;;4.57;2.40;;;;;;;17.21;55.83;101946.03;5094769;28;20483;-85
2022/09/01 02:13:37;;;;;;;11.63;2.45;;;;;;;17.16;55.96;101940.69;5095106;28;20036;-84
2022/09/01 02:16:10;;;;;;;5.72;2.35;;;;;;;17.18;56.25;101938.94;5095343;28;20441;-85
2022/09/01 02:18:40;;;;;;;9.18;2.33;;;;;;;17.15;55.77;101941.59;5095434;28;20380;-85
2022/09/01 02:21:09;;;;;;;3.65;2.38;;;;;;;17.17;55.67;101942.50;5098819;28;20035;-85
2022/09/01 02:23:39;;;;;;;6.32;2.60;;;;;;;17.19;55.58;101942.50;5099275;28;20032;-85
2022/09/01 02:26:07;;;;;;;5.13;2.30;;;;;;;17.16;55.94;101951.38;5081019;28;20032;-84
2022/09/01 02:28:35;;;;;;;3.60;2.30;;;;;;;17.21;55.59;101949.59;5098941;28;20036;-85
2022/09/01 02:31:03;;;;;;;7.03;2.40;;;;;;;17.28;55.27;101942.50;5098428;28;20103;-84
2022/09/01 02:33:30;;;;;;;6.55;2.42;;;;;;;17.25;55.35;101934.47;5098734;28;20451;-85
2022/09/01 02:36:08;;;;;;;3.55;2.40;;;;;;;17.19;55.88;101935.38;5098573;28;20465;-86
2022/09/01 02:38:34;;;;;;;5.03;2.40;;;;;;;17.17;56.15;101944.25;5098293;28;20023;-85
2022/09/01 02:41:01;;;;;;;11.07;2.60;;;;;;;17.13;57.11;101942.47;5098407;28;20036;-85
2022/09/01 02:43:28;;;;;;;3.92;2.40;;;;;;;17.00;56.43;101945.16;5098371;28;20032;-84
2022/09/01 02:45:59;;;;;;;6.18;2.50;;;;;;;16.98;56.21;101936.22;5098777;28;20036;-85
2022/09/01 02:48:39;;;;;;;6.50;2.50;;;;;;;17.01;56.34;101940.69;5098081;28;20028;-85
2022/09/01 02:51:07;;;;;;;5.55;2.60;;;;;;;16.93;56.21;101939.78;5098155;28;20111;-85
2022/09/01 02:53:34;;;;;;;5.75;2.58;;;;;;;16.91;56.21;101945.09;5079710;28;20217;-85
2022/09/01 02:56:01;;;;;;;5.00;2.50;;;;;;;16.89;56.41;101940.66;5097798;28;20055;-85
2022/09/01 02:58:28;;;;;;;4.78;2.53;;;;;;;16.88;56.71;101934.44;5097323;28;20040;-84
2022/09/01 03:00:56;;;;;;;8.60;2.40;;;;;;;16.86;56.47;101929.97;5079033;28;20094;-84
2022/09/01 03:03:22;;;;;;;3.70;2.50;;;;;;;16.79;56.52;101926.41;5097842;28;20064;-85
2022/09/01 03:05:55;;;;;;;4.30;2.40;;;;;;;16.70;57.04;101921.00;5097645;28;20032;-85
2022/09/01 03:08:21;;;;;;;;;;;;;;;16.87;56.32;101929.97;5080495;28;20040;-85
2022/09/01 03:10:46;;;;;;;3.92;2.50;;;;;;;16.74;56.93;101930.81;5097765;28;19908;-84
2022/09/01 03:13:13;;;;;;;5.32;2.40;;;;;;;16.66;57.18;101933.47;5097328;28;20444;-85
2022/09/01 03:15:39;;;;;;;5.25;2.50;;;;;;;16.57;57.32;101924.50;5097622;28;20070;-84
2022/09/01 03:18:07;;;;;;;6.05;2.50;;;;;;;16.55;57.38;101921.84;5079427;28;20040;-85
2022/09/01 03:20:35;;;;;;;3.08;2.40;;;;;;;16.55;57.79;101921.84;5098859;28;20024;-85
2022/09/01 03:23:03;;;;;;;4.45;2.50;;;;;;;16.56;57.33;101925.41;5080529;28;20094;-85
2022/09/01 03:25:30;;;;;;;4.55;2.30;;;;;;;16.48;57.56;101915.59;5079821;28;20028;-85
2022/09/01 03:27:58;;;;;;;3.38;2.40;;;;;;;16.55;57.79;101928.97;5098296;28;20058;-84
2022/09/01 03:30:25;;;;;;;3.88;2.35;;;;;;;16.56;57.88;101928.06;5079958;28;20460;-83
2022/09/01 03:32:51;;;;;;;5.75;2.50;;;;;;;16.63;57.03;101929.91;5097919;28;20115;-84
2022/09/01 03:35:16;;;;;;;6.40;2.60;;;;;;;16.53;57.64;101927.19;5081857;28;20181;-86
2022/09/01 03:37:43;;;;;;;7.32;2.58;;;;;;;16.62;57.10;101922.78;5100350;28;20129;-84
2022/09/01 03:40:12;;;;;;;5.68;2.33;;;;;;;16.61;57.32;101921.84;5099611;28;20067;-84
2022/09/01 03:42:38;;;;;;;7.25;2.40;;;;;;;16.57;57.12;101920.06;5082135;28;20047;-84
2022/09/01 03:45:08;;;;;;;5.00;2.50;;;;;;;16.56;57.31;101930.75;5082766;28;20031;-85
2022/09/01 03:47:38;;;;;;;3.67;2.33;;;;;;;16.55;57.87;101927.19;5100032;28;20166;-84
2022/09/01 03:50:26;;;;;;;4.40;2.50;;;;;;;16.56;57.18;101926.28;5097807;28;20036;-84
2022/09/01 03:52:57;;;;;;;6.57;2.47;;;;;;;16.56;57.42;101928.06;5097879;28;20048;-83
2022/09/01 03:55:26;;;;;;;7.57;2.50;;;;;;;16.63;57.01;101924.56;5098686;28;20051;-83
2022/09/01 03:57:54;;;;;;;5.75;2.65;;;;;;;16.64;57.60;101927.22;5099646;28;20024;-84
2022/09/01 04:00:22;;;;;;;8.05;2.70;;;;;;;16.61;57.13;101931.66;5100647;28;20024;-85
2022/09/01 04:02:50;;;;;;;4.63;2.47;;;;;;;16.64;57.39;101927.22;5100288;28;20031;-85
2022/09/01 04:05:21;;;;;;;4.60;2.53;;;;;;;16.55;57.43;101926.31;5101078;28;20028;-85
2022/09/01 04:07:49;;;;;;;7.90;2.65;;;;;;;16.51;57.91;101926.28;5101232;28;20028;-84
2022/09/01 04:10:16;;;;;;;6.57;2.65;;;;;;;16.49;57.55;101920.06;5100971;28;20058;-84
2022/09/01 04:12:42;;;;;;;6.90;2.50;;;;;;;16.45;57.55;101925.38;5101315;28;20096;-84
2022/09/01 04:15:08;;;;;;;4.32;2.40;;;;;;;16.46;57.49;101929.84;5082320;28;20139;-84
2022/09/01 04:20:19;;;;;;;5.90;2.47;;;;;;;16.39;57.15;101909.34;5102631;28;20039;-85
2022/09/01 04:22:46;;;;;;;6.18;2.50;;;;;;;16.34;57.13;101913.78;5101978;28;20036;-84
2022/09/01 04:25:12;;;;;;;6.53;2.50;;;;;;;16.32;57.24;101912.88;5084217;28;20036;-84
2022/09/01 04:27:39;;;;;;;8.25;2.58;;;;;;;16.31;57.18;101921.75;5102925;28;20105;-84
2022/09/01 04:30:11;;;;;;;4.65;2.60;;;;;;;16.26;56.97;101919.94;5101246;28;20038;-84
2022/09/01 04:32:37;;;;;;;3.70;2.60;;;;;;;16.30;57.41;101930.66;5066731;28;20036;-83
2022/09/01 04:35:04;;;;;;;7.38;2.90;;;;;;;16.27;57.07;101923.50;5102554;28;20058;-84
2022/09/01 04:37:30;;;;;;;6.25;2.60;;;;;;;16.30;57.05;101927.97;5100244;28;20028;-84
2022/09/01 04:39:56;;;;;;;8.70;2.75;;;;;;;16.23;57.51;101933.31;5100568;28;20032;-85
2022/09/01 04:42:24;;;;;;;10.38;2.70;;;;;;;16.15;57.49;101932.38;5082528;28;20036;-83
2022/09/01 04:44:52;;;;;;;5.95;2.70;;;;;;;16.15;57.42;101923.47;5100090;28;20043;-84
2022/09/01 04:47:18;;;;;;;6.90;2.42;;;;;;;16.16;57.07;101931.47;5080095;28;20036;-84
2022/09/01 04:49:47;;;;;;;6.88;2.90;;;;;;;16.13;57.61;101934.13;5080914;28;20032;-84
2022/09/01 04:52:13;;;;;;;5.13;2.60;;;;;;;16.13;57.24;101926.13;5100427;28;20525;-84
2022/09/01 04:54:39;;;;;;;5.57;2.70;;;;;;;16.17;57.05;101930.59;5078778;28;20080;-84
2022/09/01 04:57:07;;;;;;;7.13;2.60;;;;;;;16.24;57.02;101932.41;5079421;28;20074;-84
2022/09/01 04:59:34;;;;;;;4.57;2.80;;;;;;;16.19;56.90;101931.50;5077765;28;20119;-85
2022/09/01 05:02:00;;;;;;;3.72;2.50;;;;;;;16.16;57.02;101933.25;5077576;28;20037;-83
2022/09/01 05:04:32;;;;;;;4.43;2.50;;;;;;;16.13;57.22;101933.22;5079962;28;20106;-85
2022/09/01 05:06:59;;;;;;;3.45;2.70;;;;;;;16.09;57.12;101937.66;5079972;28;20020;-84
2022/09/01 05:09:31;;;;;;;5.97;2.90;;;;;;;16.14;57.06;101932.34;5076745;28;20082;-83
2022/09/01 05:12:00;;;;;;;3.75;2.70;;;;;;;16.06;57.26;101931.41;5077785;28;20078;-83
2022/09/01 05:14:26;;;;;;;3.63;2.47;;;;;;;16.09;57.01;101931.44;5077147;28;20082;-84
2022/09/01 05:16:57;;;;;;;6.57;2.80;;;;;;;16.03;57.09;101929.63;5076949;28;20036;-82
2022/09/01 05:19:25;;;;;;;4.68;2.58;;;;;;;16.10;57.20;101931.47;5076133;28;20024;-83
2022/09/01 05:21:53;;;;;;;5.90;2.60;;;;;;;16.10;57.12;101934.13;5074947;28;20082;-84
2022/09/01 05:24:20;;;;;;;5.13;2.60;;;;;;;16.11;57.42;101938.56;5077258;28;20041;-83
2022/09/01 05:26:47;;;;;;;6.47;2.80;;;;;;;16.16;57.80;101933.25;5076950;28;20033;-84
2022/09/01 05:29:16;;;;;;;4.63;2.85;;;;;;;16.15;57.25;101937.69;5076056;28;20036;-85
2022/09/01 05:31:44;;;;;;;5.15;2.67;;;;;;;16.12;57.24;101926.13;5075005;28;20032;-84
2022/09/01 05:34:11;;;;;;;5.72;2.67;;;;;;;16.20;56.61;101937.72;5074229;28;20048;-84
2022/09/01 05:36:42;;;;;;;5.25;2.53;;;;;;;16.38;56.24;101934.25;5074467;28;20056;-85
2022/09/01 05:39:11;;;;;;;5.82;2.70;;;;;;;16.46;56.03;101933.38;5073593;28;20025;-85
2022/09/01 05:41:39;;;;;;;6.65;2.72;;;;;;;16.65;55.52;101945.00;5074210;28;20117;-86
2022/09/01 05:44:07;;;;;;;8.90;3.35;;;;;;;16.56;55.63;101934.31;5074738;28;20032;-86
2022/09/01 05:46:34;;;;;;;7.13;3.10;;;;;;;16.74;55.97;101950.44;5076830;28;20538;-86
2022/09/01 05:49:01;;;;;;;4.78;2.72;;;;;;;16.69;55.18;101944.13;5076668;28;20036;-85
2022/09/01 05:51:29;;;;;;;6.78;2.50;;;;;;;16.78;54.84;101945.97;5077946;28;20032;-86
2022/09/01 05:53:57;;;;;;;5.53;2.90;;;;;;;16.84;55.03;101948.66;5088866;28;20055;-86
2022/09/01 05:56:25;;;;;;;4.68;2.63;;;;;;;16.76;55.14;101953.09;5105196;28;20036;-84
2022/09/01 05:58:52;;;;;;;12.90;2.85;;;;;;;16.90;56.19;101953.13;5104664;28;20036;-83
2022/09/01 06:01:26;;;;;;;9.10;3.00;;;;;;;17.00;54.87;101954.91;5106740;28;20024;-85
2022/09/01 06:03:53;;;;;;;5.75;2.60;;;;;;;17.11;54.24;101953.16;5105124;28;20038;-82
2022/09/01 06:06:24;;;;;;;7.07;2.83;;;;;;;17.26;53.73;101946.97;5104767;28;20084;-85
2022/09/01 06:08:51;;;;;;;8.20;2.70;;;;;;;17.33;52.98;101939.84;5106136;28;20034;-84
2022/09/01 06:11:18;;;;;;;8.15;2.85;;;;;;;17.49;52.95;101944.28;5106968;28;20050;-84
2022/09/01 06:13:46;;;;;;;6.65;2.60;;;;;;;17.68;52.38;101955.84;5106970;28;20039;-83
2022/09/01 06:16:15;;;;;;;7.65;2.50;;;;;;;17.67;52.37;101956.75;5106148;28;20521;-83
2022/09/01 06:18:42;;;;;;;5.57;2.80;;;;;;;17.41;52.75;101930.94;5104371;28;20031;-82
2022/09/01 06:21:13;;;;;;;4.10;2.55;;;;;;;17.49;52.99;101955.88;5102615;28;20028;-82
2022/09/01 06:23:39;;;;;;;9.98;2.70;;;;;;;17.33;53.54;101953.19;5102868;28;20062;-83
2022/09/01 06:26:06;;;;;;;6.65;2.63;;;;;;;17.28;53.69;101961.19;5101676;28;20123;-83
2022/09/01 06:28:31;;;;;;;6.50;2.75;;;;;;;17.16;53.71;101937.16;5066032;28;20123;-83
2022/09/01 06:30:56;;;;;;;12.60;4.75;;;;;;;17.28;54.10;101951.41;5100367;28;20153;-82
2022/09/01 06:33:24;;;;;;;6.40;2.80;;;;;;;17.33;53.80;101955.84;5099869;28;20109;-82
2022/09/01 06:35:51;;;;;;;6.72;2.65;;;;;;;17.30;54.38;101958.53;5099629;28;20032;-82
2022/09/01 06:38:18;;;;;;;7.30;4.10;;;;;;;17.19;54.93;101956.75;5099551;28;20050;-84
2022/09/01 06:40:44;;;;;;;6.63;2.75;;;;;;;17.26;54.54;101958.53;5099747;28;20469;-83
2022/09/01 06:43:12;;;;;;;12.48;3.50;;;;;;;17.49;53.95;101960.31;5099750;28;20047;-82
2022/09/01 06:45:41;;;;;;;4.63;2.60;;;;;;;17.71;53.14;101955.84;5099693;28;20060;-83
2022/09/01 06:48:07;;;;;;;7.18;2.70;;;;;;;17.92;52.75;101960.31;5099365;28;20107;-82
2022/09/01 06:50:33;;;;;;;5.72;2.50;;;;;;;18.21;52.21;101960.25;5081396;28;20035;-82
2022/09/01 06:53:07;;;;;;;8.23;2.60;;;;;;;18.42;51.41;101972.69;5099122;28;20028;-81
2022/09/01 06:55:36;;;;;;;10.10;2.63;;;;;;;18.64;50.94;101968.13;5099388;28;20047;-81
2022/09/01 06:58:04;;;;;;;4.07;2.50;;;;;;;18.89;50.53;101961.78;5099333;28;20054;-80
2022/09/01 07:00:29;;;;;;;8.82;2.75;;;;;;;19.11;49.33;101964.31;5099295;28;20069;-79
2022/09/01 07:02:57;;;;;;;7.00;2.60;;;;;;;19.36;49.64;101973.09;5099082;28;20051;-81
2022/09/01 07:05:23;;;;;;;7.05;2.60;;;;;;;19.58;49.17;101973.81;5099289;28;20090;-84
2022/09/01 07:07:54;;;;;;;5.50;2.58;;;;;;;19.81;48.52;101973.63;5095685;28;20036;-84
2022/09/01 07:10:24;;;;;;;5.57;2.78;;;;;;;20.01;47.56;101968.94;5096074;28;20036;-82
2022/09/01 07:12:58;;;;;;;7.78;2.60;;;;;;;20.27;47.28;101972.22;5096236;28;20073;-83
2022/09/01 07:15:24;;;;;;;7.93;2.92;;;;;;;20.49;46.18;101967.53;5096577;28;20028;-82
2022/09/01 07:17:52;;;;;;;9.35;2.70;;;;;;;20.74;46.04;101978.84;5095959;28;20366;-80
2022/09/01 07:20:20;;;;;;;7.53;2.70;;;;;;;21.03;45.68;101982.94;5095646;28;20028;-82
2022/09/01 07:22:51;;;;;;;10.30;2.78;;;;;;;21.17;45.36;101972.84;5095765;28;20028;-79
2022/09/01 07:25:16;;;;;;;6.88;2.60;;;;;;;21.18;44.66;101976.44;5095692;28;20435;-83
2022/09/01 07:27:49;;;;;;;5.40;2.55;;;;;;;21.04;44.94;101978.44;5095620;28;20123;-80
2022/09/01 07:30:17;;;;;;;7.32;2.80;;;;;;;21.14;44.73;101980.97;5095724;28;20032;-84
2022/09/01 07:32:43;;;;;;;11.48;3.03;;;;;;;21.17;44.56;101964.78;5095346;28;20115;-79
2022/09/01 07:35:10;;;;;;;6.07;2.88;;;;;;;21.33;44.17;101978.03;5095385;28;20116;-79
2022/09/01 07:37:38;;;;;;;8.02;2.92;;;;;;;21.45;43.97;101972.44;5095541;28;20035;-78
2022/09/01 07:40:07;;;;;;;7.15;3.03;;;;;;;21.63;44.00;101968.59;5095207;28;20040;-83
2022/09/01 07:42:32;;;;;;;9.70;2.75;;;;;;;21.92;43.45;101971.59;5095438;28;20355;-82
2022/09/01 07:44:58;;;;;;;6.13;2.85;;;;;;;22.06;43.36;101978.56;5095229;28;20488;-79
2022/09/01 07:47:24;;;;;;;6.55;2.92;;;;;;;22.31;42.84;101974.53;5095165;28;20105;-79
2022/09/01 07:49:49;;;;;;;6.63;2.70;;;;;;;22.41;42.61;101973.41;5095244;28;20485;-81
2022/09/01 07:52:14;;;;;;;9.25;2.80;;;;;;;22.67;41.85;101977.34;5095121;28;20056;-78
2022/09/01 07:54:41;;;;;;;7.72;2.70;;;;;;;22.89;41.64;101978.66;5094829;28;20486;-82
2022/09/01 07:57:06;;;;;;;5.90;2.85;;;;;;;22.96;40.77;101977.63;5095120;28;20054;-79
2022/09/01 07:59:34;;;;;;;5.28;2.78;;;;;;;23.24;41.09;101979.69;5095257;28;20470;-82
2022/09/01 08:02:00;;;;;;;7.43;2.67;;;;;;;23.54;40.96;101979.84;5094681;28;20066;-82
2022/09/01 08:04:26;;;;;;;11.68;2.90;;;;;;;23.50;40.44;101970.94;5095215;28;20189;-83
2022/09/01 08:06:52;;;;;;;10.70;3.05;;;;;;;23.46;40.35;101964.72;5076820;28;20024;-82
2022/09/01 08:09:17;;;;;;;7.38;2.92;;;;;;;23.60;39.79;101969.81;5095024;28;20032;-81
2022/09/01 08:11:43;;;;;;;5.97;2.45;;;;;;;23.81;39.27;101980.97;5095052;28;20432;-79
2022/09/01 08:14:09;;;;;;;5.90;2.80;;;;;;;23.65;39.55;101970.59;5094916;28;20484;-80
2022/09/01 08:16:34;;;;;;;5.70;2.70;;;;;;;23.92;39.13;101963.59;5094505;28;20024;-81
2022/09/01 08:18:59;;;;;;;5.03;2.63;;;;;;;24.14;39.05;101965.69;5094233;28;20039;-80
2022/09/01 08:21:25;;;;;;;8.80;2.85;;;;;;;24.24;38.52;101975.31;5094727;28;20468;-78
2022/09/01 08:23:53;;;;;;;5.90;2.42;;;;;;;24.43;38.72;101968.50;5094814;28;20386;-78
2022/09/01 08:26:22;;;;;;;7.75;2.60;;;;;;;24.65;38.51;101979.53;5094407;28;20478;-82
2022/09/01 08:28:48;;;;;;;9.15;3.10;;;;;;;24.78;37.69;101962.97;5094529;28;20059;-82
2022/09/01 08:31:16;;;;;;;7.40;2.88;;;;;;;24.83;37.75;101980.81;5094608;28;20066;-83
2022/09/01 08:33:43;;;;;;;5.55;2.80;;;;;;;24.97;37.19;101975.00;5094167;28;20039;-81
2022/09/01 08:36:11;;;;;;;6.93;3.15;;;;;;;25.13;36.90;101976.28;5094270;28;20535;-80
2022/09/01 08:38:37;;;;;;;7.05;2.70;;;;;;;25.33;37.00;101969.34;5094035;28;20024;-80
2022/09/01 08:41:11;;;;;;;7.07;2.92;;;;;;;25.37;36.57;101969.19;5094067;28;20151;-81
2022/09/01 08:43:52;;;;;;;7.05;3.00;;;;;;;25.41;36.44;101976.28;5094256;28;20557;-82
2022/09/01 08:46:38;;;;;;;7.65;2.70;;;;;;;25.60;36.59;101973.84;5094549;28;20085;-81
2022/09/01 08:49:18;;;;;;;8.70;2.97;;;;;;;25.71;36.16;101974.34;5094209;28;20099;-81
2022/09/01 08:51:57;;;;;;;10.60;2.80;;;;;;;26.17;35.96;101970.06;5093984;28;20028;-78
2022/09/01 08:54:26;;;;;;;10.48;2.65;;;;;;;26.55;35.20;101978.63;5094057;28;20048;-78
2022/09/01 08:56:58;;;;;;;13.52;2.80;;;;;;;26.46;34.00;101962.69;5094144;28;20024;-78
2022/09/01 08:59:25;;;;;;;7.80;2.45;;;;;;;26.64;34.36;101978.28;5093725;28;20020;-83
2022/09/01 09:01:54;;;;;;;6.68;2.47;;;;;;;26.61;34.65;101981.09;5075310;28;20032;-78
2022/09/01 09:04:19;;;;;;;7.28;2.80;;;;;;;26.84;33.81;101976.59;5093643;28;20043;-83
2022/09/01 09:06:44;;;;;;;7.38;2.45;;;;;;;27.00;34.02;101969.63;5093750;28;20024;-78
2022/09/01 09:09:10;;;;;;;8.60;2.60;;;;;;;27.06;34.10;101971.19;5093971;28;20385;-79
2022/09/01 09:11:45;;;;;;;6.45;2.70;;;;;;;26.99;33.86;101956.13;5093394;28;20077;-80
2022/09/01 09:14:40;;;;;;;8.98;2.70;;;;;;;27.17;32.97;101968.97;5093483;28;20508;-80
2022/09/01 09:17:06;;;;;;;13.73;2.70;;;;;;;26.92;33.06;101964.50;5093505;28;20111;-80
2022/09/01 09:19:35;;;;;;;5.82;2.60;;;;;;;26.92;33.12;101961.78;5093471;28;20039;-81
2022/09/01 09:22:05;;;;;;;11.85;2.75;;;;;;;27.00;33.24;101956.06;5093706;28;20050;-85
2022/09/01 09:24:51;;;;;;;6.82;2.47;;;;;;;27.31;33.20;101954.84;5093493;28;20029;-83
2022/09/01 09:27:36;;;;;;;12.40;2.80;;;;;;;27.57;32.59;101965.47;5093567;28;20144;-85
2022/09/01 09:30:11;;;;;;;13.60;2.63;;;;;;;27.71;32.63;101954.03;5092641;28;20084;-84
2022/09/01 09:33:02;;;;;;;11.98;2.53;;;;;;;27.94;32.30;101953.94;5075141;28;20433;-83
2022/09/01 09:35:41;;;;;;;5.70;2.53;;;;;;;27.98;31.28;101956.53;5093526;28;20024;-85
2022/09/01 09:38:21;;;;;;;8.25;2.20;;;;;;;28.10;31.65;101945.09;5075217;28;20027;-83
2022/09/01 09:41:07;;;;;;;7.88;2.45;;;;;;;28.34;30.68;101937.66;5093855;28;20028;-84
2022/09/01 09:43:37;;;;;;;7.43;2.40;;;;;;;28.41;30.04;101931.91;5093088;28;20016;-86
2022/09/01 09:46:23;;;;;;;8.02;2.45;;;;;;;28.84;29.67;101937.13;5093341;28;20111;-86
2022/09/01 09:49:15;;;;;;;6.78;2.25;;;;;;;29.05;29.60;101922.50;5075338;28;20024;-84
2022/09/01 09:51:44;;;;;;;5.97;2.30;;;;;;;28.86;28.45;101922.47;5095091;28;20060;-78
2022/09/01 09:54:33;;;;;;;8.65;2.08;;;;;;;28.75;29.11;101923.97;5093306;28;20386;-79
2022/09/01 09:57:08;;;;;;;8.55;2.15;;;;;;;28.49;28.89;101914.34;5093956;28;20097;-83
2022/09/01 09:59:52;;;;;;;7.70;2.20;;;;;;;28.49;28.85;101928.81;5093727;28;20109;-82
2022/09/01 10:02:27;;;;;;;9.50;2.38;;;;;;;28.34;29.10;101919.50;5093388;28;20043;-82
2022/09/01 10:04:53;;;;;;;3.63;2.13;;;;;;;28.53;28.45;101919.56;5093152;28;20039;-81
2022/09/01 10:07:27;;;;;;;10.15;2.00;;;;;;;28.91;27.65;101915.00;5093068;28;20149;-77
2022/09/01 10:09:54;;;;;;;10.10;2.30;;;;;;;29.00;26.63;101912.81;5093084;28;20039;-79
2022/09/01 10:12:23;;;;;;;6.30;2.03;;;;;;;28.91;27.21;101912.28;5093166;28;20028;-80
2022/09/01 10:15:21;;;;;;;3.92;2.00;;;;;;;29.26;26.65;101916.94;5075044;28;20359;-84
2022/09/01 10:17:51;;;;;;;4.82;1.90;;;;;;;29.14;26.07;101915.72;5092524;28;20036;-78
2022/09/01 10:20:24;;;;;;;4.18;1.88;;;;;;;28.62;26.58;101916.41;5092848;28;20113;-80
2022/09/01 10:22:51;;;;;;;5.40;2.05;;;;;;;28.48;27.50;101908.03;5092763;28;20028;-80
2022/09/01 10:25:24;;;;;;;4.78;2.20;;;;;;;28.59;26.88;101910.22;5092795;28;20097;-81
2022/09/01 10:28:11;;;;;;;5.47;2.10;;;;;;;28.81;27.24;101902.78;5093182;28;20152;-79
2022/09/01 10:30:41;;;;;;;7.18;2.00;;;;;;;28.93;26.35;101896.75;5093059;28;20035;-78
2022/09/01 10:33:08;;;;;;;9.25;2.00;;;;;;;28.61;26.21;101906.50;5092874;28;20117;-78
2022/09/01 10:35:38;;;;;;;6.13;1.85;;;;;;;28.31;26.17;101906.06;5092751;28;20036;-81
2022/09/01 10:38:07;;;;;;;3.80;1.80;;;;;;;28.04;26.13;101896.47;5092940;28;20051;-81
2022/09/01 10:40:32;;;;;;;7.57;2.00;;;;;;;28.38;25.26;101902.13;5093494;28;20062;-78
2022/09/01 10:43:26;;;;;;;3.73;2.00;;;;;;;28.62;25.44;101908.25;5096518;28;20032;-77
2022/09/01 10:45:51;;;;;;;4.40;1.80;;;;;;;28.21;24.51;101902.00;5096626;28;20351;-77
2022/09/01 10:48:20;;;;;;;6.53;1.73;;;;;;;28.47;25.95;101902.66;5096557;28;20373;-77
2022/09/01 10:51:13;;;;;;;4.93;1.80;;;;;;;28.55;24.86;101898.59;5096549;28;20032;-77
2022/09/01 10:53:39;;;;;;;6.43;2.08;;;;;;;28.84;24.43;101899.91;5095976;28;20136;-77
2022/09/01 10:56:16;;;;;;;7.00;2.00;;;;;;;28.78;24.59;101892.06;5096161;28;20032;-79
2022/09/01 10:59:20;;;;;;;5.03;2.00;;;;;;;28.78;24.38;101894.78;5096307;28;20112;-81
2022/09/01 11:01:45;;;;;;;4.63;2.00;;;;;;;28.92;24.35;101891.38;5096350;28;20025;-83
2022/09/01 11:04:31;;;;;;;4.57;1.92;;;;;;;29.27;25.30;101894.19;5095793;28;20072;-83
2022/09/01 11:07:03;;;;;;;10.80;2.08;;;;;;;29.77;24.58;101880.69;5094561;28;20028;-82
2022/09/01 11:09:37;;;;;;;4.35;1.88;;;;;;;29.96;22.96;101891.47;5096320;28;20032;-83
2022/09/01 11:12:15;;;;;;;6.05;2.17;;;;;;;30.23;23.54;101882.78;5096182;28;20039;-83
2022/09/01 11:14:53;;;;;;;4.28;1.70;;;;;;;30.44;22.59;101877.00;5096049;28;20118;-83
2022/09/01 11:17:58;;;;;;;9.45;2.00;;;;;;;30.91;22.27;101881.63;5095600;28;20032;-83
2022/09/01 11:20:32;;;;;;;7.60;2.00;;;;;;;30.93;21.24;101876.97;4993897;28;20038;-82
2022/09/01 11:23:02;;;;;;;3.35;1.70;;;;;;;31.28;21.52;101881.31;4994082;28;20038;-82
2022/09/01 11:25:44;;;;;;;4.80;1.60;;;;;;;31.48;20.33;101871.94;5050795;28;20430;-82
2022/09/01 11:28:30;;;;;;;8.35;2.00;;;;;;;31.62;19.53;101861.06;5095997;28;20119;-83
2022/09/01 11:31:04;;;;;;;4.53;2.22;;;;;;;31.67;21.81;101867.97;5095845;28;20062;-82
2022/09/01 11:33:49;;;;;;;5.38;2.05;;;;;;;31.65;20.30;101864.47;5095654;28;20073;-83
2022/09/01 11:36:30;;;;;;;4.53;1.73;;;;;;;31.80;20.90;101859.91;5095503;28;20028;-83
2022/09/01 11:39:07;;;;;;;4.45;2.17;;;;;;;31.73;19.67;101858.50;5095531;28;20119;-83
2022/09/01 11:41:45;;;;;;;3.42;1.80;;;;;;;31.68;19.35;101866.13;5077472;28;20030;-83
2022/09/01 11:44:32;;;;;;;7.88;1.90;;;;;;;31.97;19.90;101858.00;5095329;28;20036;-82
2022/09/01 11:47:26;;;;;;;4.35;1.60;;;;;;;32.11;20.00;101855.25;5095495;28;20028;-82
2022/09/01 11:49:55;;;;;;;4.72;1.70;;;;;;;32.17;19.02;101843.94;5092276;28;20040;-82